Wajir Airport

Airport
ICAO code: 
HKWJ
IATA Code: 
WJR
Summary
ICAO Region: 
AFI
Territory: 
Location: 
Wajir, Wajir County
Serving: 
Wajir
Elevation: 
757 ft
Coordinates: 
Aerial View: 
1° 43' 48" N, 40° 5' 24" E
Metar
Observation
HKWJ 211000Z 06008KT 9999 FEW037 35/14 Q1010
Station
Wajir
Date/Time
2022-01-21 10:00:00
Wind direction
60°
Wind speed
08 kts
Lowest cloud amount
few clouds
Temperature
35°C
Dew point
14°C
Humidity
28%
QNH
1010 hPa
Weather condition
n/a

Wajir Airport is located in Wajir County, Kenya.

Climatology

Hot desert climate (Köppen climate classification BWh)

Runways

Designator Length Width Surface Rops
15/33 2802 32 ASP No/No
Airport map: 
Aerial View: 

SKYbrary Partners:

Safety knowledge contributed by: